sensor_id;sensor_type;location;lat;lon;timestamp;P1;durP1;ratioP1;P2;durP2;ratioP2
76107;SDS011;64834;52.516;10.528;2024-02-21T00:22:55;18.83;;;6.38;;
76107;SDS011;64834;52.516;10.528;2024-02-21T00:25:20;14.23;;;6.10;;
76107;SDS011;64834;52.516;10.528;2024-02-21T00:27:46;17.42;;;7.15;;
76107;SDS011;64834;52.516;10.528;2024-02-21T00:30:11;18.65;;;6.85;;
76107;SDS011;64834;52.516;10.528;2024-02-21T00:32:37;21.50;;;7.35;;
76107;SDS011;64834;52.516;10.528;2024-02-21T00:35:02;18.27;;;6.97;;
76107;SDS011;64834;52.516;10.528;2024-02-21T00:37:28;16.33;;;7.32;;
76107;SDS011;64834;52.516;10.528;2024-02-21T00:39:56;19.15;;;7.00;;
76107;SDS011;64834;52.516;10.528;2024-02-21T00:42:21;16.38;;;7.30;;
76107;SDS011;64834;52.516;10.528;2024-02-21T00:44:47;15.27;;;6.82;;
76107;SDS011;64834;52.516;10.528;2024-02-21T00:47:12;17.23;;;7.57;;
76107;SDS011;64834;52.516;10.528;2024-02-21T00:49:37;20.02;;;8.65;;
76107;SDS011;64834;52.516;10.528;2024-02-21T00:52:03;16.15;;;7.45;;
76107;SDS011;64834;52.516;10.528;2024-02-21T00:54:28;23.05;;;8.90;;
76107;SDS011;64834;52.516;10.528;2024-02-21T00:56:53;21.42;;;7.82;;
76107;SDS011;64834;52.516;10.528;2024-02-21T00:59:19;18.27;;;8.38;;
76107;SDS011;64834;52.516;10.528;2024-02-21T01:01:44;19.50;;;8.80;;
76107;SDS011;64834;52.516;10.528;2024-02-21T01:04:09;21.98;;;8.68;;
76107;SDS011;64834;52.516;10.528;2024-02-21T01:06:35;21.35;;;8.82;;
76107;SDS011;64834;52.516;10.528;2024-02-21T01:09:00;18.73;;;8.95;;
76107;SDS011;64834;52.516;10.528;2024-02-21T01:11:26;17.42;;;8.70;;
76107;SDS011;64834;52.516;10.528;2024-02-21T01:13:51;27.13;;;10.10;;
76107;SDS011;64834;52.516;10.528;2024-02-21T01:16:16;20.10;;;9.25;;
76107;SDS011;64834;52.516;10.528;2024-02-21T01:18:41;22.83;;;9.82;;
76107;SDS011;64834;52.516;10.528;2024-02-21T01:21:07;21.98;;;9.95;;
76107;SDS011;64834;52.516;10.528;2024-02-21T01:23:34;20.33;;;9.65;;
76107;SDS011;64834;52.516;10.528;2024-02-21T01:26:00;23.75;;;9.90;;
76107;SDS011;64834;52.516;10.528;2024-02-21T01:28:25;21.48;;;9.27;;
76107;SDS011;64834;52.516;10.528;2024-02-21T01:30:50;24.23;;;9.88;;
76107;SDS011;64834;52.516;10.528;2024-02-21T01:33:16;20.85;;;10.52;;
76107;SDS011;64834;52.516;10.528;2024-02-21T01:35:42;23.30;;;10.88;;
76107;SDS011;64834;52.516;10.528;2024-02-21T01:38:07;28.02;;;11.13;;
76107;SDS011;64834;52.516;10.528;2024-02-21T01:40:33;25.63;;;11.73;;
76107;SDS011;64834;52.516;10.528;2024-02-21T01:42:58;23.02;;;10.75;;
76107;SDS011;64834;52.516;10.528;2024-02-21T01:45:23;22.00;;;10.02;;
76107;SDS011;64834;52.516;10.528;2024-02-21T01:47:49;25.38;;;9.82;;
76107;SDS011;64834;52.516;10.528;2024-02-21T01:50:15;24.75;;;10.40;;
76107;SDS011;64834;52.516;10.528;2024-02-21T01:52:42;23.35;;;10.10;;
76107;SDS011;64834;52.516;10.528;2024-02-21T01:55:10;22.05;;;10.45;;
76107;SDS011;64834;52.516;10.528;2024-02-21T01:57:38;28.20;;;10.85;;
76107;SDS011;64834;52.516;10.528;2024-02-21T02:00:04;22.48;;;11.13;;
76107;SDS011;64834;52.516;10.528;2024-02-21T02:02:30;23.98;;;10.63;;
76107;SDS011;64834;52.516;10.528;2024-02-21T02:04:56;25.95;;;11.05;;
76107;SDS011;64834;52.516;10.528;2024-02-21T02:07:22;23.20;;;10.55;;
76107;SDS011;64834;52.516;10.528;2024-02-21T02:09:47;21.52;;;9.85;;
76107;SDS011;64834;52.516;10.528;2024-02-21T02:12:16;24.05;;;10.32;;
76107;SDS011;64834;52.516;10.528;2024-02-21T02:14:41;21.90;;;10.88;;
76107;SDS011;64834;52.516;10.528;2024-02-21T02:17:06;22.73;;;10.07;;
76107;SDS011;64834;52.516;10.528;2024-02-21T02:19:32;23.33;;;10.98;;
76107;SDS011;64834;52.516;10.528;2024-02-21T02:22:05;21.23;;;9.77;;
76107;SDS011;64834;52.516;10.528;2024-02-21T02:24:42;23.83;;;9.98;;
76107;SDS011;64834;52.516;10.528;2024-02-21T02:27:08;22.10;;;10.70;;
76107;SDS011;64834;52.516;10.528;2024-02-21T02:29:33;24.25;;;10.45;;
76107;SDS011;64834;52.516;10.528;2024-02-21T02:31:59;20.63;;;8.60;;
76107;SDS011;64834;52.516;10.528;2024-02-21T02:34:24;21.30;;;9.35;;
76107;SDS011;64834;52.516;10.528;2024-02-21T02:36:49;20.10;;;8.60;;
76107;SDS011;64834;52.516;10.528;2024-02-21T02:39:15;19.63;;;8.98;;
76107;SDS011;64834;52.516;10.528;2024-02-21T02:41:40;22.60;;;9.63;;
76107;SDS011;64834;52.516;10.528;2024-02-21T02:44:05;24.13;;;10.05;;
76107;SDS011;64834;52.516;10.528;2024-02-21T02:46:31;24.48;;;9.20;;
76107;SDS011;64834;52.516;10.528;2024-02-21T02:48:56;22.60;;;10.23;;
76107;SDS011;64834;52.516;10.528;2024-02-21T02:51:21;23.00;;;10.05;;
76107;SDS011;64834;52.516;10.528;2024-02-21T02:53:47;20.27;;;8.60;;
76107;SDS011;64834;52.516;10.528;2024-02-21T02:56:15;20.90;;;9.63;;
76107;SDS011;64834;52.516;10.528;2024-02-21T02:58:41;21.60;;;9.13;;
76107;SDS011;64834;52.516;10.528;2024-02-21T03:01:08;23.63;;;9.68;;
76107;SDS011;64834;52.516;10.528;2024-02-21T03:03:34;22.95;;;9.52;;
76107;SDS011;64834;52.516;10.528;2024-02-21T03:05:59;23.85;;;9.88;;
76107;SDS011;64834;52.516;10.528;2024-02-21T03:08:24;25.58;;;9.13;;
76107;SDS011;64834;52.516;10.528;2024-02-21T03:10:50;24.70;;;9.13;;
76107;SDS011;64834;52.516;10.528;2024-02-21T03:13:15;20.40;;;10.07;;
76107;SDS011;64834;52.516;10.528;2024-02-21T03:15:40;20.75;;;9.95;;
76107;SDS011;64834;52.516;10.528;2024-02-21T03:18:06;19.23;;;8.93;;
76107;SDS011;64834;52.516;10.528;2024-02-21T03:20:31;21.10;;;9.07;;
76107;SDS011;64834;52.516;10.528;2024-02-21T03:22:57;22.48;;;9.98;;
76107;SDS011;64834;52.516;10.528;2024-02-21T03:25:22;25.13;;;9.13;;
76107;SDS011;64834;52.516;10.528;2024-02-21T03:27:48;19.08;;;9.15;;
76107;SDS011;64834;52.516;10.528;2024-02-21T03:30:13;20.42;;;9.43;;
76107;SDS011;64834;52.516;10.528;2024-02-21T03:32:38;22.95;;;9.60;;
76107;SDS011;64834;52.516;10.528;2024-02-21T03:35:04;23.38;;;9.57;;
76107;SDS011;64834;52.516;10.528;2024-02-21T03:37:30;19.50;;;9.00;;
76107;SDS011;64834;52.516;10.528;2024-02-21T03:39:55;21.00;;;10.73;;
76107;SDS011;64834;52.516;10.528;2024-02-21T03:42:20;21.63;;;8.35;;
76107;SDS011;64834;52.516;10.528;2024-02-21T03:44:46;23.45;;;9.27;;
76107;SDS011;64834;52.516;10.528;2024-02-21T03:47:11;22.95;;;9.82;;
76107;SDS011;64834;52.516;10.528;2024-02-21T03:49:37;19.52;;;8.65;;
76107;SDS011;64834;52.516;10.528;2024-02-21T03:52:02;19.85;;;9.25;;
76107;SDS011;64834;52.516;10.528;2024-02-21T03:54:31;18.17;;;9.45;;
76107;SDS011;64834;52.516;10.528;2024-02-21T03:56:56;20.70;;;9.27;;
76107;SDS011;64834;52.516;10.528;2024-02-21T03:59:22;24.27;;;9.05;;
76107;SDS011;64834;52.516;10.528;2024-02-21T04:01:50;19.58;;;9.32;;
76107;SDS011;64834;52.516;10.528;2024-02-21T04:04:16;24.48;;;9.13;;
76107;SDS011;64834;52.516;10.528;2024-02-21T04:06:48;23.15;;;9.88;;
76107;SDS011;64834;52.516;10.528;2024-02-21T04:09:14;21.48;;;9.95;;
76107;SDS011;64834;52.516;10.528;2024-02-21T04:11:39;22.60;;;9.57;;
76107;SDS011;64834;52.516;10.528;2024-02-21T04:14:05;20.27;;;9.35;;
76107;SDS011;64834;52.516;10.528;2024-02-21T04:16:30;20.05;;;8.90;;
76107;SDS011;64834;52.516;10.528;2024-02-21T04:18:55;20.50;;;9.23;;
76107;SDS011;64834;52.516;10.528;2024-02-21T04:21:21;21.38;;;10.00;;
76107;SDS011;64834;52.516;10.528;2024-02-21T04:23:46;17.63;;;9.70;;
76107;SDS011;64834;52.516;10.528;2024-02-21T04:26:11;18.35;;;9.40;;
76107;SDS011;64834;52.516;10.528;2024-02-21T04:28:36;20.73;;;9.60;;
76107;SDS011;64834;52.516;10.528;2024-02-21T04:31:02;19.75;;;9.50;;
76107;SDS011;64834;52.516;10.528;2024-02-21T04:33:27;22.08;;;9.80;;
76107;SDS011;64834;52.516;10.528;2024-02-21T04:35:53;23.20;;;10.07;;
76107;SDS011;64834;52.516;10.528;2024-02-21T04:38:19;28.15;;;10.27;;
76107;SDS011;64834;52.516;10.528;2024-02-21T04:40:45;23.00;;;9.25;;
76107;SDS011;64834;52.516;10.528;2024-02-21T04:43:10;19.88;;;9.80;;
76107;SDS011;64834;52.516;10.528;2024-02-21T04:45:38;19.75;;;9.82;;
76107;SDS011;64834;52.516;10.528;2024-02-21T04:50:29;21.08;;;9.15;;
76107;SDS011;64834;52.516;10.528;2024-02-21T04:52:54;21.20;;;9.48;;
76107;SDS011;64834;52.516;10.528;2024-02-21T04:55:20;18.85;;;10.02;;
76107;SDS011;64834;52.516;10.528;2024-02-21T04:57:45;21.73;;;9.85;;
76107;SDS011;64834;52.516;10.528;2024-02-21T05:00:10;19.23;;;9.70;;
76107;SDS011;64834;52.516;10.528;2024-02-21T05:02:36;18.63;;;10.02;;
76107;SDS011;64834;52.516;10.528;2024-02-21T05:05:01;19.90;;;10.02;;
76107;SDS011;64834;52.516;10.528;2024-02-21T05:07:27;19.88;;;10.57;;
76107;SDS011;64834;52.516;10.528;2024-02-21T05:09:53;20.10;;;9.85;;
76107;SDS011;64834;52.516;10.528;2024-02-21T05:12:18;21.60;;;9.10;;
76107;SDS011;64834;52.516;10.528;2024-02-21T05:14:43;24.58;;;10.00;;
76107;SDS011;64834;52.516;10.528;2024-02-21T05:17:09;18.08;;;9.18;;
76107;SDS011;64834;52.516;10.528;2024-02-21T05:19:34;18.20;;;9.35;;
76107;SDS011;64834;52.516;10.528;2024-02-21T05:21:59;17.48;;;8.70;;
76107;SDS011;64834;52.516;10.528;2024-02-21T05:24:25;18.13;;;8.65;;
76107;SDS011;64834;52.516;10.528;2024-02-21T05:26:50;20.35;;;8.43;;
76107;SDS011;64834;52.516;10.528;2024-02-21T05:29:16;19.58;;;9.40;;
76107;SDS011;64834;52.516;10.528;2024-02-21T05:34:16;17.88;;;8.98;;
76107;SDS011;64834;52.516;10.528;2024-02-21T05:36:42;19.88;;;9.27;;
76107;SDS011;64834;52.516;10.528;2024-02-21T05:39:07;16.67;;;8.30;;
76107;SDS011;64834;52.516;10.528;2024-02-21T05:41:32;19.20;;;8.77;;
76107;SDS011;64834;52.516;10.528;2024-02-21T05:43:58;20.98;;;8.85;;
76107;SDS011;64834;52.516;10.528;2024-02-21T05:46:23;19.30;;;8.43;;
76107;SDS011;64834;52.516;10.528;2024-02-21T05:48:49;23.00;;;9.20;;
76107;SDS011;64834;52.516;10.528;2024-02-21T05:51:14;20.83;;;10.02;;
76107;SDS011;64834;52.516;10.528;2024-02-21T05:53:40;20.40;;;9.48;;
76107;SDS011;64834;52.516;10.528;2024-02-21T05:56:09;23.75;;;10.52;;
76107;SDS011;64834;52.516;10.528;2024-02-21T05:58:38;24.92;;;10.52;;
76107;SDS011;64834;52.516;10.528;2024-02-21T06:01:04;24.83;;;8.18;;
76107;SDS011;64834;52.516;10.528;2024-02-21T06:03:32;20.48;;;8.20;;
76107;SDS011;64834;52.516;10.528;2024-02-21T06:05:57;27.50;;;10.77;;
76107;SDS011;64834;52.516;10.528;2024-02-21T06:08:23;23.58;;;11.20;;
76107;SDS011;64834;52.516;10.528;2024-02-21T06:10:48;19.73;;;9.93;;
76107;SDS011;64834;52.516;10.528;2024-02-21T06:13:14;20.13;;;9.77;;
76107;SDS011;64834;52.516;10.528;2024-02-21T06:15:39;22.75;;;10.88;;
76107;SDS011;64834;52.516;10.528;2024-02-21T06:18:05;22.17;;;10.27;;
76107;SDS011;64834;52.516;10.528;2024-02-21T06:20:30;22.60;;;9.93;;
76107;SDS011;64834;52.516;10.528;2024-02-21T06:22:56;21.85;;;11.70;;
76107;SDS011;64834;52.516;10.528;2024-02-21T06:25:22;22.27;;;10.60;;
76107;SDS011;64834;52.516;10.528;2024-02-21T06:27:47;21.73;;;11.10;;
76107;SDS011;64834;52.516;10.528;2024-02-21T06:30:13;23.05;;;10.98;;
76107;SDS011;64834;52.516;10.528;2024-02-21T06:32:38;22.08;;;11.27;;
76107;SDS011;64834;52.516;10.528;2024-02-21T06:35:04;23.08;;;11.48;;
76107;SDS011;64834;52.516;10.528;2024-02-21T06:37:30;21.85;;;11.45;;
76107;SDS011;64834;52.516;10.528;2024-02-21T06:39:56;21.73;;;9.93;;
76107;SDS011;64834;52.516;10.528;2024-02-21T06:42:24;21.05;;;9.82;;
76107;SDS011;64834;52.516;10.528;2024-02-21T06:44:49;21.33;;;10.18;;
76107;SDS011;64834;52.516;10.528;2024-02-21T06:47:15;21.10;;;10.07;;
76107;SDS011;64834;52.516;10.528;2024-02-21T06:49:40;22.75;;;10.73;;
76107;SDS011;64834;52.516;10.528;2024-02-21T06:52:06;23.52;;;10.95;;
76107;SDS011;64834;52.516;10.528;2024-02-21T06:54:32;17.75;;;10.15;;
76107;SDS011;64834;52.516;10.528;2024-02-21T06:56:57;17.70;;;9.18;;
76107;SDS011;64834;52.516;10.528;2024-02-21T06:59:23;25.02;;;11.18;;
76107;SDS011;64834;52.516;10.528;2024-02-21T07:01:48;19.90;;;11.32;;
76107;SDS011;64834;52.516;10.528;2024-02-21T07:04:14;22.85;;;10.88;;
76107;SDS011;64834;52.516;10.528;2024-02-21T07:06:40;24.83;;;11.73;;
76107;SDS011;64834;52.516;10.528;2024-02-21T07:09:05;22.10;;;10.82;;
76107;SDS011;64834;52.516;10.528;2024-02-21T07:11:31;22.25;;;8.80;;
76107;SDS011;64834;52.516;10.528;2024-02-21T07:13:56;24.27;;;11.40;;
76107;SDS011;64834;52.516;10.528;2024-02-21T07:16:21;23.10;;;10.60;;
76107;SDS011;64834;52.516;10.528;2024-02-21T07:18:47;23.45;;;11.32;;
76107;SDS011;64834;52.516;10.528;2024-02-21T07:21:12;25.05;;;11.18;;
76107;SDS011;64834;52.516;10.528;2024-02-21T07:23:40;25.63;;;12.02;;
76107;SDS011;64834;52.516;10.528;2024-02-21T07:26:08;22.08;;;10.52;;
76107;SDS011;64834;52.516;10.528;2024-02-21T07:28:33;23.35;;;11.43;;
76107;SDS011;64834;52.516;10.528;2024-02-21T07:30:59;22.60;;;10.48;;
76107;SDS011;64834;52.516;10.528;2024-02-21T07:33:25;22.23;;;10.80;;
76107;SDS011;64834;52.516;10.528;2024-02-21T07:35:50;23.35;;;10.82;;
76107;SDS011;64834;52.516;10.528;2024-02-21T07:38:15;20.38;;;9.73;;
76107;SDS011;64834;52.516;10.528;2024-02-21T07:40:44;13.35;;;6.32;;
76107;SDS011;64834;52.516;10.528;2024-02-21T07:43:10;22.10;;;10.23;;
76107;SDS011;64834;52.516;10.528;2024-02-21T07:45:35;21.80;;;10.00;;
76107;SDS011;64834;52.516;10.528;2024-02-21T07:48:00;22.92;;;10.02;;
76107;SDS011;64834;52.516;10.528;2024-02-21T07:50:26;17.67;;;9.60;;
76107;SDS011;64834;52.516;10.528;2024-02-21T07:52:51;19.75;;;7.65;;
76107;SDS011;64834;52.516;10.528;2024-02-21T07:55:17;17.10;;;9.18;;
76107;SDS011;64834;52.516;10.528;2024-02-21T07:57:42;18.90;;;9.10;;
76107;SDS011;64834;52.516;10.528;2024-02-21T08:00:07;18.67;;;9.82;;
76107;SDS011;64834;52.516;10.528;2024-02-21T08:02:42;17.92;;;9.45;;
76107;SDS011;64834;52.516;10.528;2024-02-21T08:05:08;20.17;;;9.05;;
76107;SDS011;64834;52.516;10.528;2024-02-21T08:07:34;18.65;;;10.02;;
76107;SDS011;64834;52.516;10.528;2024-02-21T08:09:59;15.80;;;9.55;;
76107;SDS011;64834;52.516;10.528;2024-02-21T08:12:24;16.95;;;8.43;;
76107;SDS011;64834;52.516;10.528;2024-02-21T08:14:50;20.02;;;9.40;;
76107;SDS011;64834;52.516;10.528;2024-02-21T08:17:15;19.75;;;10.18;;
76107;SDS011;64834;52.516;10.528;2024-02-21T08:19:40;20.60;;;9.68;;
76107;SDS011;64834;52.516;10.528;2024-02-21T08:22:06;18.83;;;10.05;;
76107;SDS011;64834;52.516;10.528;2024-02-21T08:24:31;19.38;;;10.27;;
76107;SDS011;64834;52.516;10.528;2024-02-21T08:26:57;18.00;;;9.13;;
76107;SDS011;64834;52.516;10.528;2024-02-21T08:29:22;17.75;;;9.25;;
76107;SDS011;64834;52.516;10.528;2024-02-21T08:31:48;19.35;;;10.15;;
76107;SDS011;64834;52.516;10.528;2024-02-21T08:34:13;18.13;;;9.18;;
76107;SDS011;64834;52.516;10.528;2024-02-21T08:36:38;17.60;;;8.73;;
76107;SDS011;64834;52.516;10.528;2024-02-21T08:39:04;17.30;;;9.38;;
76107;SDS011;64834;52.516;10.528;2024-02-21T08:41:33;17.08;;;9.30;;
76107;SDS011;64834;52.516;10.528;2024-02-21T08:43:59;14.93;;;9.05;;
76107;SDS011;64834;52.516;10.528;2024-02-21T08:46:25;16.58;;;8.75;;
76107;SDS011;64834;52.516;10.528;2024-02-21T08:48:51;17.52;;;8.85;;
76107;SDS011;64834;52.516;10.528;2024-02-21T08:51:17;15.63;;;8.45;;
76107;SDS011;64834;52.516;10.528;2024-02-21T08:53:46;19.50;;;8.50;;
76107;SDS011;64834;52.516;10.528;2024-02-21T08:56:12;15.63;;;8.05;;
76107;SDS011;64834;52.516;10.528;2024-02-21T08:58:39;17.45;;;8.23;;
76107;SDS011;64834;52.516;10.528;2024-02-21T09:01:05;17.65;;;8.10;;
76107;SDS011;64834;52.516;10.528;2024-02-21T09:03:32;16.75;;;8.20;;
76107;SDS011;64834;52.516;10.528;2024-02-21T09:05:58;18.45;;;8.07;;
76107;SDS011;64834;52.516;10.528;2024-02-21T09:08:24;16.30;;;7.35;;
76107;SDS011;64834;52.516;10.528;2024-02-21T09:10:50;13.57;;;8.20;;
76107;SDS011;64834;52.516;10.528;2024-02-21T09:13:15;16.42;;;7.10;;
76107;SDS011;64834;52.516;10.528;2024-02-21T09:15:40;13.60;;;7.43;;
76107;SDS011;64834;52.516;10.528;2024-02-21T09:18:06;17.73;;;7.10;;
76107;SDS011;64834;52.516;10.528;2024-02-21T09:20:31;15.35;;;7.40;;
76107;SDS011;64834;52.516;10.528;2024-02-21T09:22:56;16.67;;;7.85;;
76107;SDS011;64834;52.516;10.528;2024-02-21T09:25:22;18.83;;;8.07;;
76107;SDS011;64834;52.516;10.528;2024-02-21T09:27:47;15.70;;;7.40;;
76107;SDS011;64834;52.516;10.528;2024-02-21T09:30:12;11.90;;;6.90;;
76107;SDS011;64834;52.516;10.528;2024-02-21T09:32:38;14.48;;;7.43;;
76107;SDS011;64834;52.516;10.528;2024-02-21T09:35:03;17.40;;;6.03;;
76107;SDS011;64834;52.516;10.528;2024-02-21T09:37:30;16.20;;;6.30;;
76107;SDS011;64834;52.516;10.528;2024-02-21T09:39:55;13.45;;;6.78;;
76107;SDS011;64834;52.516;10.528;2024-02-21T09:42:21;15.25;;;7.35;;
76107;SDS011;64834;52.516;10.528;2024-02-21T09:44:49;17.23;;;7.15;;
76107;SDS011;64834;52.516;10.528;2024-02-21T09:47:17;12.63;;;6.72;;
76107;SDS011;64834;52.516;10.528;2024-02-21T09:49:47;15.55;;;6.70;;
76107;SDS011;64834;52.516;10.528;2024-02-21T09:52:12;12.20;;;6.45;;
76107;SDS011;64834;52.516;10.528;2024-02-21T09:54:40;12.45;;;5.97;;
76107;SDS011;64834;52.516;10.528;2024-02-21T09:57:07;13.10;;;5.50;;
76107;SDS011;64834;52.516;10.528;2024-02-21T09:59:33;14.65;;;6.03;;
76107;SDS011;64834;52.516;10.528;2024-02-21T10:01:58;14.10;;;6.65;;
76107;SDS011;64834;52.516;10.528;2024-02-21T10:04:27;12.63;;;6.22;;
76107;SDS011;64834;52.516;10.528;2024-02-21T10:06:53;8.10;;;4.10;;
76107;SDS011;64834;52.516;10.528;2024-02-21T10:09:22;12.70;;;5.60;;
76107;SDS011;64834;52.516;10.528;2024-02-21T10:12:10;10.85;;;5.03;;
76107;SDS011;64834;52.516;10.528;2024-02-21T10:14:37;13.30;;;5.68;;
76107;SDS011;64834;52.516;10.528;2024-02-21T10:17:02;12.57;;;5.75;;
76107;SDS011;64834;52.516;10.528;2024-02-21T10:19:30;11.25;;;4.95;;
76107;SDS011;64834;52.516;10.528;2024-02-21T10:21:59;9.30;;;5.20;;
76107;SDS011;64834;52.516;10.528;2024-02-21T10:24:26;9.43;;;5.30;;
76107;SDS011;64834;52.516;10.528;2024-02-21T10:26:59;7.50;;;4.65;;
76107;SDS011;64834;52.516;10.528;2024-02-21T10:29:27;12.70;;;4.68;;
76107;SDS011;64834;52.516;10.528;2024-02-21T10:31:52;14.60;;;5.35;;
76107;SDS011;64834;52.516;10.528;2024-02-21T10:34:17;10.05;;;4.35;;
76107;SDS011;64834;52.516;10.528;2024-02-21T10:36:43;9.98;;;4.47;;
76107;SDS011;64834;52.516;10.528;2024-02-21T10:39:08;8.90;;;4.28;;
76107;SDS011;64834;52.516;10.528;2024-02-21T10:41:34;6.85;;;3.03;;
76107;SDS011;64834;52.516;10.528;2024-02-21T10:46:30;7.45;;;3.30;;
76107;SDS011;64834;52.516;10.528;2024-02-21T10:49:01;10.48;;;3.75;;
76107;SDS011;64834;52.516;10.528;2024-02-21T10:51:33;9.30;;;3.88;;
76107;SDS011;64834;52.516;10.528;2024-02-21T10:56:55;9.38;;;4.07;;
76107;SDS011;64834;52.516;10.528;2024-02-21T10:59:23;7.47;;;3.50;;
76107;SDS011;64834;52.516;10.528;2024-02-21T11:01:51;6.60;;;3.50;;
76107;SDS011;64834;52.516;10.528;2024-02-21T11:04:17;8.52;;;4.28;;
76107;SDS011;64834;52.516;10.528;2024-02-21T11:06:43;8.52;;;4.45;;
76107;SDS011;64834;52.516;10.528;2024-02-21T11:09:09;5.78;;;3.47;;
76107;SDS011;64834;52.516;10.528;2024-02-21T11:11:35;8.57;;;3.63;;
76107;SDS011;64834;52.516;10.528;2024-02-21T11:14:03;7.57;;;3.42;;
76107;SDS011;64834;52.516;10.528;2024-02-21T11:16:40;6.22;;;3.42;;
76107;SDS011;64834;52.516;10.528;2024-02-21T11:19:09;6.80;;;2.92;;
76107;SDS011;64834;52.516;10.528;2024-02-21T11:21:44;9.13;;;4.20;;
76107;SDS011;64834;52.516;10.528;2024-02-21T11:24:09;5.32;;;3.20;;
76107;SDS011;64834;52.516;10.528;2024-02-21T11:26:36;7.50;;;3.22;;
76107;SDS011;64834;52.516;10.528;2024-02-21T11:29:02;8.00;;;3.20;;
76107;SDS011;64834;52.516;10.528;2024-02-21T11:31:44;9.98;;;3.70;;
76107;SDS011;64834;52.516;10.528;2024-02-21T11:34:16;6.22;;;2.92;;
76107;SDS011;64834;52.516;10.528;2024-02-21T11:36:49;9.27;;;3.70;;
76107;SDS011;64834;52.516;10.528;2024-02-21T11:39:19;9.25;;;3.60;;
76107;SDS011;64834;52.516;10.528;2024-02-21T11:42:05;5.97;;;2.08;;
76107;SDS011;64834;52.516;10.528;2024-02-21T11:44:32;6.60;;;3.28;;
76107;SDS011;64834;52.516;10.528;2024-02-21T11:46:59;9.95;;;3.50;;
76107;SDS011;64834;52.516;10.528;2024-02-21T11:49:25;4.85;;;2.83;;
76107;SDS011;64834;52.516;10.528;2024-02-21T11:51:58;6.72;;;3.55;;
76107;SDS011;64834;52.516;10.528;2024-02-21T11:54:29;8.13;;;3.03;;
76107;SDS011;64834;52.516;10.528;2024-02-21T11:56:58;6.97;;;2.92;;
76107;SDS011;64834;52.516;10.528;2024-02-21T11:59:24;7.47;;;3.05;;
76107;SDS011;64834;52.516;10.528;2024-02-21T12:01:49;7.97;;;2.40;;
76107;SDS011;64834;52.516;10.528;2024-02-21T12:04:16;6.85;;;3.15;;
76107;SDS011;64834;52.516;10.528;2024-02-21T12:06:44;5.20;;;2.67;;
76107;SDS011;64834;52.516;10.528;2024-02-21T12:09:13;4.55;;;2.50;;
76107;SDS011;64834;52.516;10.528;2024-02-21T12:11:41;5.30;;;2.90;;
76107;SDS011;64834;52.516;10.528;2024-02-21T12:14:07;7.40;;;2.35;;
76107;SDS011;64834;52.516;10.528;2024-02-21T12:16:34;7.88;;;2.45;;
76107;SDS011;64834;52.516;10.528;2024-02-21T12:18:59;7.20;;;2.78;;
76107;SDS011;64834;52.516;10.528;2024-02-21T12:21:31;6.35;;;2.58;;
76107;SDS011;64834;52.516;10.528;2024-02-21T12:24:10;4.07;;;2.13;;
76107;SDS011;64834;52.516;10.528;2024-02-21T12:26:36;5.38;;;2.38;;
76107;SDS011;64834;52.516;10.528;2024-02-21T12:29:02;8.18;;;2.33;;
76107;SDS011;64834;52.516;10.528;2024-02-21T12:31:27;4.28;;;1.92;;
76107;SDS011;64834;52.516;10.528;2024-02-21T12:33:53;3.75;;;2.22;;
76107;SDS011;64834;52.516;10.528;2024-02-21T12:36:18;4.13;;;2.03;;
76107;SDS011;64834;52.516;10.528;2024-02-21T12:38:43;5.30;;;2.30;;
76107;SDS011;64834;52.516;10.528;2024-02-21T12:41:09;5.22;;;2.10;;
76107;SDS011;64834;52.516;10.528;2024-02-21T12:43:34;4.70;;;2.00;;
76107;SDS011;64834;52.516;10.528;2024-02-21T12:45:59;4.65;;;2.13;;
76107;SDS011;64834;52.516;10.528;2024-02-21T12:48:25;5.72;;;1.92;;
76107;SDS011;64834;52.516;10.528;2024-02-21T12:50:50;5.70;;;2.00;;
76107;SDS011;64834;52.516;10.528;2024-02-21T12:53:17;3.70;;;1.90;;
76107;SDS011;64834;52.516;10.528;2024-02-21T12:55:43;4.70;;;1.83;;
76107;SDS011;64834;52.516;10.528;2024-02-21T12:58:09;5.97;;;1.77;;
76107;SDS011;64834;52.516;10.528;2024-02-21T13:00:34;4.72;;;1.55;;
76107;SDS011;64834;52.516;10.528;2024-02-21T13:03:00;4.60;;;2.00;;
76107;SDS011;64834;52.516;10.528;2024-02-21T13:05:26;5.00;;;1.80;;
76107;SDS011;64834;52.516;10.528;2024-02-21T13:07:52;5.32;;;1.90;;
76107;SDS011;64834;52.516;10.528;2024-02-21T13:10:17;4.47;;;1.65;;
76107;SDS011;64834;52.516;10.528;2024-02-21T13:12:43;6.32;;;2.10;;
76107;SDS011;64834;52.516;10.528;2024-02-21T13:15:09;4.57;;;2.03;;
76107;SDS011;64834;52.516;10.528;2024-02-21T13:17:36;3.75;;;2.15;;
76107;SDS011;64834;52.516;10.528;2024-02-21T13:20:02;3.42;;;1.85;;
76107;SDS011;64834;52.516;10.528;2024-02-21T13:22:28;4.45;;;2.05;;
76107;SDS011;64834;52.516;10.528;2024-02-21T13:24:53;4.55;;;2.10;;
76107;SDS011;64834;52.516;10.528;2024-02-21T13:27:18;4.55;;;2.47;;
76107;SDS011;64834;52.516;10.528;2024-02-21T13:29:43;4.75;;;2.30;;
76107;SDS011;64834;52.516;10.528;2024-02-21T13:32:10;4.35;;;2.22;;
76107;SDS011;64834;52.516;10.528;2024-02-21T13:34:35;3.78;;;1.90;;
76107;SDS011;64834;52.516;10.528;2024-02-21T13:37:01;6.22;;;2.50;;
76107;SDS011;64834;52.516;10.528;2024-02-21T13:39:26;5.85;;;3.00;;
76107;SDS011;64834;52.516;10.528;2024-02-21T13:41:51;7.15;;;2.65;;
76107;SDS011;64834;52.516;10.528;2024-02-21T13:44:17;4.82;;;2.63;;
76107;SDS011;64834;52.516;10.528;2024-02-21T13:46:42;6.43;;;2.80;;
76107;SDS011;64834;52.516;10.528;2024-02-21T13:49:07;6.65;;;3.45;;
76107;SDS011;64834;52.516;10.528;2024-02-21T13:51:35;7.22;;;3.40;;
76107;SDS011;64834;52.516;10.528;2024-02-21T13:54:02;7.30;;;3.15;;
76107;SDS011;64834;52.516;10.528;2024-02-21T13:56:29;8.52;;;3.83;;
76107;SDS011;64834;52.516;10.528;2024-02-21T13:58:54;8.60;;;4.05;;
76107;SDS011;64834;52.516;10.528;2024-02-21T14:01:19;7.55;;;3.67;;
76107;SDS011;64834;52.516;10.528;2024-02-21T14:03:45;6.88;;;3.60;;
76107;SDS011;64834;52.516;10.528;2024-02-21T14:06:10;9.07;;;4.13;;
76107;SDS011;64834;52.516;10.528;2024-02-21T14:08:37;8.85;;;4.43;;
76107;SDS011;64834;52.516;10.528;2024-02-21T14:11:04;9.40;;;4.20;;
76107;SDS011;64834;52.516;10.528;2024-02-21T14:13:30;8.38;;;4.18;;
76107;SDS011;64834;52.516;10.528;2024-02-21T14:15:56;9.20;;;4.68;;
76107;SDS011;64834;52.516;10.528;2024-02-21T14:18:21;9.23;;;3.85;;
76107;SDS011;64834;52.516;10.528;2024-02-21T14:20:46;9.90;;;4.35;;
76107;SDS011;64834;52.516;10.528;2024-02-21T14:23:12;11.77;;;4.43;;
76107;SDS011;64834;52.516;10.528;2024-02-21T14:25:38;9.20;;;5.00;;
76107;SDS011;64834;52.516;10.528;2024-02-21T14:28:04;11.60;;;5.25;;
76107;SDS011;64834;52.516;10.528;2024-02-21T14:30:30;8.20;;;4.53;;
76107;SDS011;64834;52.516;10.528;2024-02-21T14:32:55;8.45;;;4.40;;
76107;SDS011;64834;52.516;10.528;2024-02-21T14:35:21;9.45;;;5.32;;
76107;SDS011;64834;52.516;10.528;2024-02-21T14:37:46;10.52;;;5.10;;
76107;SDS011;64834;52.516;10.528;2024-02-21T14:40:13;10.50;;;4.88;;
76107;SDS011;64834;52.516;10.528;2024-02-21T14:42:39;10.18;;;5.28;;
76107;SDS011;64834;52.516;10.528;2024-02-21T14:45:04;11.15;;;4.82;;
76107;SDS011;64834;52.516;10.528;2024-02-21T14:47:30;10.82;;;5.60;;
76107;SDS011;64834;52.516;10.528;2024-02-21T14:49:56;11.57;;;5.38;;